sensor_id;sensor_type;location;lat;lon;timestamp;pressure;altitude;pressure_sealevel;temperature;humidity
26978;BME280;56314;48.088;11.642;2023-10-19T00:01:58;93978.94;;;7.76;100.00
26978;BME280;56314;48.088;11.642;2023-10-19T00:04:26;93984.72;;;7.79;100.00
26978;BME280;56314;48.088;11.642;2023-10-19T00:06:56;93979.09;;;7.84;100.00
26978;BME280;56314;48.088;11.642;2023-10-19T00:09:22;93986.78;;;7.85;100.00
26978;BME280;56314;48.088;11.642;2023-10-19T00:11:47;93980.84;;;7.83;100.00
26978;BME280;56314;48.088;11.642;2023-10-19T00:14:16;93972.19;;;7.83;100.00
26978;BME280;56314;48.088;11.642;2023-10-19T00:16:45;93967.78;;;7.83;100.00
26978;BME280;56314;48.088;11.642;2023-10-19T00:19:25;93972.06;;;7.84;100.00
26978;BME280;56314;48.088;11.642;2023-10-19T00:21:53;93980.75;;;7.85;100.00
26978;BME280;56314;48.088;11.642;2023-10-19T00:24:27;93976.59;;;7.82;100.00
26978;BME280;56314;48.088;11.642;2023-10-19T00:26:53;93974.53;;;7.76;100.00
26978;BME280;56314;48.088;11.642;2023-10-19T00:29:20;93954.16;;;7.70;100.00
26978;BME280;56314;48.088;11.642;2023-10-19T00:32:05;93968.63;;;7.74;100.00
26978;BME280;56314;48.088;11.642;2023-10-19T00:34:32;93975.91;;;7.70;100.00
26978;BME280;56314;48.088;11.642;2023-10-19T00:36:58;93969.28;;;7.66;100.00
26978;BME280;56314;48.088;11.642;2023-10-19T00:39:34;93962.56;;;7.64;100.00
26978;BME280;56314;48.088;11.642;2023-10-19T00:42:08;93964.88;;;7.57;100.00
26978;BME280;56314;48.088;11.642;2023-10-19T00:44:33;93967.06;;;7.52;100.00
26978;BME280;56314;48.088;11.642;2023-10-19T00:47:08;93961.72;;;7.53;100.00
26978;BME280;56314;48.088;11.642;2023-10-19T00:49:46;93961.72;;;7.53;100.00
26978;BME280;56314;48.088;11.642;2023-10-19T00:52:12;93949.06;;;7.49;100.00
26978;BME280;56314;48.088;11.642;2023-10-19T00:54:45;93951.81;;;7.47;100.00
26978;BME280;56314;48.088;11.642;2023-10-19T00:57:15;93941.78;;;7.52;100.00
26978;BME280;56314;48.088;11.642;2023-10-19T00:59:45;93945.22;;;7.53;100.00
26978;BME280;56314;48.088;11.642;2023-10-19T01:02:14;93939.97;;;7.53;100.00
26978;BME280;56314;48.088;11.642;2023-10-19T01:04:43;93937.25;;;7.54;100.00
26978;BME280;56314;48.088;11.642;2023-10-19T01:07:10;93930.66;;;7.60;100.00
26978;BME280;56314;48.088;11.642;2023-10-19T01:09:47;93935.31;;;7.66;100.00
26978;BME280;56314;48.088;11.642;2023-10-19T01:12:13;93936.97;;;7.67;100.00
26978;BME280;56314;48.088;11.642;2023-10-19T01:17:52;93907.28;;;7.68;100.00
26978;BME280;56314;48.088;11.642;2023-10-19T01:20:24;93912.50;;;7.68;100.00
26978;BME280;56314;48.088;11.642;2023-10-19T01:23:12;93932.03;;;7.74;100.00
26978;BME280;56314;48.088;11.642;2023-10-19T01:25:55;93951.84;;;7.77;100.00
26978;BME280;56314;48.088;11.642;2023-10-19T01:28:32;93924.75;;;7.78;100.00
26978;BME280;56314;48.088;11.642;2023-10-19T01:31:09;93924.75;;;7.78;100.00
26978;BME280;56314;48.088;11.642;2023-10-19T01:33:48;93935.88;;;7.80;100.00
26978;BME280;56314;48.088;11.642;2023-10-19T01:36:14;93934.38;;;7.77;100.00
26978;BME280;56314;48.088;11.642;2023-10-19T01:38:42;93937.16;;;7.76;100.00
26978;BME280;56314;48.088;11.642;2023-10-19T01:41:08;93939.47;;;7.79;100.00
26978;BME280;56314;48.088;11.642;2023-10-19T01:43:45;93932.84;;;7.84;100.00
26978;BME280;56314;48.088;11.642;2023-10-19T01:46:13;93924.19;;;7.84;100.00
26978;BME280;56314;48.088;11.642;2023-10-19T01:48:42;93921.72;;;7.82;100.00
26978;BME280;56314;48.088;11.642;2023-10-19T01:51:09;93940.16;;;7.81;100.00
26978;BME280;56314;48.088;11.642;2023-10-19T01:53:37;93933.16;;;7.81;100.00
26978;BME280;56314;48.088;11.642;2023-10-19T01:56:13;93939.34;;;7.80;100.00
26978;BME280;56314;48.088;11.642;2023-10-19T01:58:41;93944.28;;;7.83;100.00
26978;BME280;56314;48.088;11.642;2023-10-19T02:01:07;93932.31;;;7.81;100.00
26978;BME280;56314;48.088;11.642;2023-10-19T02:03:42;93932.75;;;7.86;100.00
26978;BME280;56314;48.088;11.642;2023-10-19T02:06:09;93929.69;;;7.81;100.00
26978;BME280;56314;48.088;11.642;2023-10-19T02:08:44;93914.44;;;7.76;100.00
26978;BME280;56314;48.088;11.642;2023-10-19T02:11:10;93910.16;;;7.75;100.00
26978;BME280;56314;48.088;11.642;2023-10-19T02:13:45;93908.25;;;7.87;100.00
26978;BME280;56314;48.088;11.642;2023-10-19T02:16:15;93902.75;;;7.80;100.00
26978;BME280;56314;48.088;11.642;2023-10-19T02:18:47;93908.78;;;7.81;100.00
26978;BME280;56314;48.088;11.642;2023-10-19T02:21:13;93922.69;;;7.81;100.00
26978;BME280;56314;48.088;11.642;2023-10-19T02:23:39;93917.47;;;7.81;100.00
26978;BME280;56314;48.088;11.642;2023-10-19T02:26:09;93924.47;;;7.81;100.00
26978;BME280;56314;48.088;11.642;2023-10-19T02:28:38;93926.13;;;7.82;100.00
26978;BME280;56314;48.088;11.642;2023-10-19T02:31:04;93916.78;;;7.79;100.00
26978;BME280;56314;48.088;11.642;2023-10-19T02:33:39;93918.69;;;7.77;100.00
26978;BME280;56314;48.088;11.642;2023-10-19T02:36:04;93918.28;;;7.82;100.00
26978;BME280;56314;48.088;11.642;2023-10-19T02:38:38;93917.88;;;7.86;100.00
26978;BME280;56314;48.088;11.642;2023-10-19T02:41:03;93911.13;;;7.84;100.00
26978;BME280;56314;48.088;11.642;2023-10-19T02:43:29;93913.88;;;7.82;100.00
26978;BME280;56314;48.088;11.642;2023-10-19T02:45:58;93910.28;;;7.83;100.00
26978;BME280;56314;48.088;11.642;2023-10-19T02:48:24;93904.25;;;7.83;100.00
26978;BME280;56314;48.088;11.642;2023-10-19T02:50:50;93903.72;;;7.79;100.00
26978;BME280;56314;48.088;11.642;2023-10-19T02:53:15;93904.69;;;7.78;100.00
26978;BME280;56314;48.088;11.642;2023-10-19T02:55:44;93905.91;;;7.84;100.00
26978;BME280;56314;48.088;11.642;2023-10-19T02:58:09;93899.84;;;7.83;100.00
26978;BME280;56314;48.088;11.642;2023-10-19T03:00:39;93895.31;;;7.85;100.00
26978;BME280;56314;48.088;11.642;2023-10-19T03:03:05;93897.22;;;7.83;100.00
26978;BME280;56314;48.088;11.642;2023-10-19T03:05:31;93893.81;;;7.83;100.00
26978;BME280;56314;48.088;11.642;2023-10-19T03:07:59;93894.50;;;7.85;100.00
26978;BME280;56314;48.088;11.642;2023-10-19T03:10:25;93891.88;;;7.85;100.00
26978;BME280;56314;48.088;11.642;2023-10-19T03:13:00;93890.22;;;7.84;100.00
26978;BME280;56314;48.088;11.642;2023-10-19T03:15:27;93891.03;;;7.84;100.00
26978;BME280;56314;48.088;11.642;2023-10-19T03:17:55;93885.81;;;7.84;100.00
26978;BME280;56314;48.088;11.642;2023-10-19T03:20:21;93882.66;;;7.91;100.00
26978;BME280;56314;48.088;11.642;2023-10-19T03:22:49;93883.47;;;7.91;100.00
26978;BME280;56314;48.088;11.642;2023-10-19T03:25:15;93881.69;;;7.92;100.00
26978;BME280;56314;48.088;11.642;2023-10-19T03:27:59;93873.97;;;7.90;100.00
26978;BME280;56314;48.088;11.642;2023-10-19T03:30:33;93875.50;;;7.93;100.00
26978;BME280;56314;48.088;11.642;2023-10-19T03:33:04;93861.47;;;7.94;100.00
26978;BME280;56314;48.088;11.642;2023-10-19T03:35:30;93863.25;;;7.93;100.00
26978;BME280;56314;48.088;11.642;2023-10-19T03:37:55;93862.44;;;7.93;100.00
26978;BME280;56314;48.088;11.642;2023-10-19T03:40:23;93850.34;;;7.92;100.00
26978;BME280;56314;48.088;11.642;2023-10-19T03:42:57;93851.84;;;7.94;100.00
26978;BME280;56314;48.088;11.642;2023-10-19T03:45:23;93848.25;;;7.95;100.00
26978;BME280;56314;48.088;11.642;2023-10-19T03:47:50;93850.88;;;7.95;100.00
26978;BME280;56314;48.088;11.642;2023-10-19T03:50:18;93844.81;;;7.95;100.00
26978;BME280;56314;48.088;11.642;2023-10-19T03:52:46;93848.78;;;7.99;100.00
26978;BME280;56314;48.088;11.642;2023-10-19T03:55:12;93838.34;;;7.99;100.00
26978;BME280;56314;48.088;11.642;2023-10-19T03:57:41;93845.22;;;8.00;100.00
26978;BME280;56314;48.088;11.642;2023-10-19T04:00:12;93844.63;;;8.06;100.00
26978;BME280;56314;48.088;11.642;2023-10-19T04:02:41;93839.41;;;8.06;100.00
26978;BME280;56314;48.088;11.642;2023-10-19T04:05:08;93835.28;;;8.04;100.00
26978;BME280;56314;48.088;11.642;2023-10-19T04:07:35;93842.72;;;8.08;100.00
26978;BME280;56314;48.088;11.642;2023-10-19T04:10:01;93844.53;;;8.08;100.00
26978;BME280;56314;48.088;11.642;2023-10-19T04:12:33;93842.03;;;8.06;100.00
26978;BME280;56314;48.088;11.642;2023-10-19T04:15:01;93834.88;;;8.08;100.00
26978;BME280;56314;48.088;11.642;2023-10-19T04:17:46;93836.78;;;8.06;100.00
26978;BME280;56314;48.088;11.642;2023-10-19T04:20:16;93835.19;;;8.05;100.00
26978;BME280;56314;48.088;11.642;2023-10-19T04:22:45;93842.03;;;8.06;100.00
26978;BME280;56314;48.088;11.642;2023-10-19T04:25:11;93842.03;;;8.06;100.00
26978;BME280;56314;48.088;11.642;2023-10-19T04:27:41;93827.88;;;8.09;100.00
26978;BME280;56314;48.088;11.642;2023-10-19T04:30:11;93839.00;;;8.11;100.00
26978;BME280;56314;48.088;11.642;2023-10-19T04:32:52;93832.78;;;8.12;100.00
26978;BME280;56314;48.088;11.642;2023-10-19T04:35:21;93830.06;;;8.13;100.00
26978;BME280;56314;48.088;11.642;2023-10-19T04:37:50;93828.41;;;8.12;100.00
26978;BME280;56314;48.088;11.642;2023-10-19T04:40:16;93822.22;;;8.13;100.00
26978;BME280;56314;48.088;11.642;2023-10-19T04:42:42;93825.09;;;8.20;100.00
26978;BME280;56314;48.088;11.642;2023-10-19T04:45:07;93825.88;;;8.21;100.00
26978;BME280;56314;48.088;11.642;2023-10-19T04:47:33;93820.53;;;8.22;100.00
26978;BME280;56314;48.088;11.642;2023-10-19T04:50:01;93821.63;;;8.20;100.00
26978;BME280;56314;48.088;11.642;2023-10-19T04:52:28;93820.81;;;8.19;100.00
26978;BME280;56314;48.088;11.642;2023-10-19T04:54:53;93818.72;;;8.23;100.00
26978;BME280;56314;48.088;11.642;2023-10-19T04:57:19;93816.81;;;8.25;100.00
26978;BME280;56314;48.088;11.642;2023-10-19T04:59:46;93811.13;;;8.29;100.00
26978;BME280;56314;48.088;11.642;2023-10-19T05:02:12;93810.88;;;8.32;100.00
26978;BME280;56314;48.088;11.642;2023-10-19T05:04:37;93811.66;;;8.33;100.00
26978;BME280;56314;48.088;11.642;2023-10-19T05:07:03;93816.78;;;8.35;100.00
26978;BME280;56314;48.088;11.642;2023-10-19T05:09:30;93807.81;;;8.37;100.00
26978;BME280;56314;48.088;11.642;2023-10-19T05:11:55;93806.56;;;8.41;100.00
26978;BME280;56314;48.088;11.642;2023-10-19T05:14:22;93796.09;;;8.41;100.00
26978;BME280;56314;48.088;11.642;2023-10-19T05:16:47;93800.50;;;8.41;100.00
26978;BME280;56314;48.088;11.642;2023-10-19T05:19:13;93787.56;;;8.39;100.00
26978;BME280;56314;48.088;11.642;2023-10-19T05:21:39;93793.50;;;8.41;100.00
26978;BME280;56314;48.088;11.642;2023-10-19T05:24:05;93794.56;;;8.39;100.00
26978;BME280;56314;48.088;11.642;2023-10-19T05:26:33;93797.88;;;8.41;100.00
26978;BME280;56314;48.088;11.642;2023-10-19T05:28:59;93796.75;;;8.43;100.00
26978;BME280;56314;48.088;11.642;2023-10-19T05:31:24;93795.66;;;8.46;100.00
26978;BME280;56314;48.088;11.642;2023-10-19T05:33:50;93808.63;;;8.47;100.00
26978;BME280;56314;48.088;11.642;2023-10-19T05:36:15;93806.81;;;8.48;100.00
26978;BME280;56314;48.088;11.642;2023-10-19T05:38:43;93812.88;;;8.49;100.00
26978;BME280;56314;48.088;11.642;2023-10-19T05:41:08;93814.66;;;8.48;100.00
26978;BME280;56314;48.088;11.642;2023-10-19T05:43:35;93812.88;;;8.49;100.00
26978;BME280;56314;48.088;11.642;2023-10-19T05:46:00;93808.63;;;8.47;100.00
26978;BME280;56314;48.088;11.642;2023-10-19T05:48:26;93816.19;;;8.51;100.00
26978;BME280;56314;48.088;11.642;2023-10-19T05:50:51;93804.75;;;8.52;100.00
26978;BME280;56314;48.088;11.642;2023-10-19T05:53:17;93804.75;;;8.52;100.00
26978;BME280;56314;48.088;11.642;2023-10-19T05:55:46;93807.38;;;8.52;100.00
26978;BME280;56314;48.088;11.642;2023-10-19T05:58:12;93798.41;;;8.54;100.00
26978;BME280;56314;48.088;11.642;2023-10-19T06:00:37;93789.44;;;8.57;100.00
26978;BME280;56314;48.088;11.642;2023-10-19T06:03:04;93795.44;;;8.67;100.00
26978;BME280;56314;48.088;11.642;2023-10-19T06:05:30;93803.00;;;8.70;100.00
26978;BME280;56314;48.088;11.642;2023-10-19T06:07:56;93800.66;;;8.67;100.00
26978;BME280;56314;48.088;11.642;2023-10-19T06:10:21;93804.41;;;8.65;100.00
26978;BME280;56314;48.088;11.642;2023-10-19T06:12:51;93793.78;;;8.66;100.00
26978;BME280;56314;48.088;11.642;2023-10-19T06:15:18;93796.28;;;8.68;100.00
26978;BME280;56314;48.088;11.642;2023-10-19T06:17:46;93792.53;;;8.70;100.00
26978;BME280;56314;48.088;11.642;2023-10-19T06:20:13;93793.72;;;8.76;100.00
26978;BME280;56314;48.088;11.642;2023-10-19T06:22:47;93792.94;;;8.75;100.00
26978;BME280;56314;48.088;11.642;2023-10-19T06:25:19;93796.88;;;8.80;100.00
26978;BME280;56314;48.088;11.642;2023-10-19T06:27:46;93805.28;;;8.83;100.00
26978;BME280;56314;48.088;11.642;2023-10-19T06:30:13;93801.38;;;8.87;100.00
26978;BME280;56314;48.088;11.642;2023-10-19T06:32:46;93808.78;;;8.92;100.00
26978;BME280;56314;48.088;11.642;2023-10-19T06:35:12;93804.91;;;8.96;100.00
26978;BME280;56314;48.088;11.642;2023-10-19T06:37:38;93795.94;;;8.99;100.00
26978;BME280;56314;48.088;11.642;2023-10-19T06:40:04;93797.00;;;9.06;100.00
26978;BME280;56314;48.088;11.642;2023-10-19T06:42:31;93790.47;;;9.10;100.00
26978;BME280;56314;48.088;11.642;2023-10-19T06:44:57;93790.56;;;9.18;100.00
26978;BME280;56314;48.088;11.642;2023-10-19T06:47:22;93791.09;;;9.22;100.00
26978;BME280;56314;48.088;11.642;2023-10-19T06:49:48;93789.66;;;9.28;100.00
26978;BME280;56314;48.088;11.642;2023-10-19T06:52:13;93782.72;;;9.36;100.00
26978;BME280;56314;48.088;11.642;2023-10-19T06:54:40;93783.28;;;9.48;100.00
26978;BME280;56314;48.088;11.642;2023-10-19T06:57:05;93776.50;;;9.55;99.83
26978;BME280;56314;48.088;11.642;2023-10-19T06:59:33;93770.47;;;9.63;99.67
26978;BME280;56314;48.088;11.642;2023-10-19T07:01:58;93781.03;;;9.72;99.06
26978;BME280;56314;48.088;11.642;2023-10-19T07:04:26;93782.56;;;9.82;98.75
26978;BME280;56314;48.088;11.642;2023-10-19T07:06:51;93773.44;;;9.95;97.77
26978;BME280;56314;48.088;11.642;2023-10-19T07:09:18;93768.06;;;9.96;97.89
26978;BME280;56314;48.088;11.642;2023-10-19T07:11:44;93770.75;;;10.05;97.83
26978;BME280;56314;48.088;11.642;2023-10-19T07:14:11;93768.81;;;10.15;97.97
26978;BME280;56314;48.088;11.642;2023-10-19T07:16:39;93765.13;;;10.26;97.61
26978;BME280;56314;48.088;11.642;2023-10-19T07:19:04;93774.88;;;10.42;97.42
26978;BME280;56314;48.088;11.642;2023-10-19T07:21:30;93779.38;;;10.58;96.87
26978;BME280;56314;48.088;11.642;2023-10-19T07:24:00;93775.00;;;10.75;96.33
26978;BME280;56314;48.088;11.642;2023-10-19T07:26:30;93775.72;;;10.93;95.22
26978;BME280;56314;48.088;11.642;2023-10-19T07:28:56;93777.22;;;11.04;94.38
26978;BME280;56314;48.088;11.642;2023-10-19T07:31:22;93775.25;;;11.15;93.75
26978;BME280;56314;48.088;11.642;2023-10-19T07:33:47;93774.63;;;11.29;92.63
26978;BME280;56314;48.088;11.642;2023-10-19T07:36:15;93777.59;;;11.34;92.64
26978;BME280;56314;48.088;11.642;2023-10-19T07:38:40;93773.00;;;11.45;92.46
26978;BME280;56314;48.088;11.642;2023-10-19T07:41:07;93772.84;;;11.54;92.95
26978;BME280;56314;48.088;11.642;2023-10-19T07:43:35;93769.88;;;11.66;92.97
26978;BME280;56314;48.088;11.642;2023-10-19T07:46:00;93767.72;;;11.78;92.28
26978;BME280;56314;48.088;11.642;2023-10-19T07:48:26;93765.59;;;11.90;91.85
26978;BME280;56314;48.088;11.642;2023-10-19T07:50:52;93770.69;;;11.99;91.30
26978;BME280;56314;48.088;11.642;2023-10-19T07:53:18;93761.97;;;12.07;90.02
26978;BME280;56314;48.088;11.642;2023-10-19T07:55:44;93762.94;;;12.14;89.22
26978;BME280;56314;48.088;11.642;2023-10-19T07:58:09;93763.44;;;12.18;89.38
26978;BME280;56314;48.088;11.642;2023-10-19T08:00:35;93761.56;;;12.27;89.23
26978;BME280;56314;48.088;11.642;2023-10-19T08:03:05;93756.81;;;12.30;88.96
26978;BME280;56314;48.088;11.642;2023-10-19T08:05:31;93752.34;;;12.31;89.34
26978;BME280;56314;48.088;11.642;2023-10-19T08:07:56;93755.13;;;12.38;89.36
26978;BME280;56314;48.088;11.642;2023-10-19T08:10:23;93743.75;;;12.45;89.82
26978;BME280;56314;48.088;11.642;2023-10-19T08:12:50;93744.84;;;12.59;89.74
26978;BME280;56314;48.088;11.642;2023-10-19T08:15:17;93737.88;;;12.75;89.23
26978;BME280;56314;48.088;11.642;2023-10-19T08:17:47;93731.81;;;12.98;88.86
26978;BME280;56314;48.088;11.642;2023-10-19T08:20:14;93728.03;;;13.23;87.17
26978;BME280;56314;48.088;11.642;2023-10-19T08:22:49;93724.06;;;13.51;85.91
26978;BME280;56314;48.088;11.642;2023-10-19T08:25:15;93716.28;;;13.73;84.72
26978;BME280;56314;48.088;11.642;2023-10-19T08:27:41;93724.03;;;13.89;83.54
26978;BME280;56314;48.088;11.642;2023-10-19T08:30:11;93718.06;;;14.10;82.39
26978;BME280;56314;48.088;11.642;2023-10-19T08:32:38;93710.50;;;14.22;82.06
26978;BME280;56314;48.088;11.642;2023-10-19T08:35:04;93714.06;;;14.29;81.23
26978;BME280;56314;48.088;11.642;2023-10-19T08:37:30;93716.72;;;14.29;81.92
26978;BME280;56314;48.088;11.642;2023-10-19T08:39:56;93713.53;;;14.19;82.53
26978;BME280;56314;48.088;11.642;2023-10-19T08:42:23;93711.25;;;14.16;83.12
26978;BME280;56314;48.088;11.642;2023-10-19T08:44:49;93710.41;;;14.15;83.18
26978;BME280;56314;48.088;11.642;2023-10-19T08:47:14;93705.88;;;14.24;83.64
26978;BME280;56314;48.088;11.642;2023-10-19T08:49:41;93706.16;;;14.29;83.71
26978;BME280;56314;48.088;11.642;2023-10-19T08:52:07;93705.69;;;14.41;84.52
26978;BME280;56314;48.088;11.642;2023-10-19T08:54:33;93715.66;;;14.60;83.66
26978;BME280;56314;48.088;11.642;2023-10-19T08:56:59;93703.66;;;14.73;83.03
26978;BME280;56314;48.088;11.642;2023-10-19T08:59:25;93698.31;;;14.88;82.84
26978;BME280;56314;48.088;11.642;2023-10-19T09:02:00;93697.41;;;14.96;82.09
26978;BME280;56314;48.088;11.642;2023-10-19T09:04:25;93692.75;;;14.98;81.97
26978;BME280;56314;48.088;11.642;2023-10-19T09:06:53;93701.47;;;14.98;82.20
26978;BME280;56314;48.088;11.642;2023-10-19T09:09:20;93701.94;;;15.02;83.83
26978;BME280;56314;48.088;11.642;2023-10-19T09:11:47;93697.91;;;15.06;87.03
26978;BME280;56314;48.088;11.642;2023-10-19T09:14:14;93692.38;;;15.01;87.24
26978;BME280;56314;48.088;11.642;2023-10-19T09:16:55;93695.38;;;14.98;87.08
26978;BME280;56314;48.088;11.642;2023-10-19T09:19:35;93694.13;;;14.93;85.15
26978;BME280;56314;48.088;11.642;2023-10-19T09:22:01;93693.69;;;14.90;84.83
26978;BME280;56314;48.088;11.642;2023-10-19T09:24:33;93696.69;;;14.87;84.57
26978;BME280;56314;48.088;11.642;2023-10-19T09:26:58;93694.25;;;14.85;87.52
26978;BME280;56314;48.088;11.642;2023-10-19T09:29:24;93692.97;;;14.81;89.00
26978;BME280;56314;48.088;11.642;2023-10-19T09:31:51;93698.81;;;14.76;89.90
26978;BME280;56314;48.088;11.642;2023-10-19T09:34:17;93698.00;;;14.76;89.89
26978;BME280;56314;48.088;11.642;2023-10-19T09:36:44;93698.56;;;14.71;90.51
26978;BME280;56314;48.088;11.642;2023-10-19T09:39:09;93693.44;;;14.70;90.78
26978;BME280;56314;48.088;11.642;2023-10-19T09:41:38;93703.38;;;14.68;91.98
26978;BME280;56314;48.088;11.642;2023-10-19T09:44:06;93704.38;;;14.67;94.74
26978;BME280;56314;48.088;11.642;2023-10-19T09:46:37;93696.81;;;14.63;95.89
26978;BME280;56314;48.088;11.642;2023-10-19T09:49:04;93687.88;;;14.65;96.57
26978;BME280;56314;48.088;11.642;2023-10-19T09:51:32;93684.72;;;14.69;96.46
26978;BME280;56314;48.088;11.642;2023-10-19T09:54:05;93686.22;;;14.78;96.28
26978;BME280;56314;48.088;11.642;2023-10-19T09:56:40;93683.53;;;14.93;96.63
26978;BME280;56314;48.088;11.642;2023-10-19T09:59:26;93684.59;;;15.14;96.19
26978;BME280;56314;48.088;11.642;2023-10-19T10:02:15;93678.41;;;15.50;93.24
26978;BME280;56314;48.088;11.642;2023-10-19T10:04:43;93673.28;;;15.77;90.30
26978;BME280;56314;48.088;11.642;2023-10-19T10:07:10;93674.28;;;15.98;87.82
26978;BME280;56314;48.088;11.642;2023-10-19T10:09:40;93659.88;;;16.07;86.01
26978;BME280;56314;48.088;11.642;2023-10-19T10:12:20;93663.78;;;16.11;85.50
26978;BME280;56314;48.088;11.642;2023-10-19T10:15:00;93649.94;;;16.16;85.44
26978;BME280;56314;48.088;11.642;2023-10-19T10:17:27;93657.28;;;16.14;85.34
26978;BME280;56314;48.088;11.642;2023-10-19T10:19:55;93646.47;;;16.15;85.66
26978;BME280;56314;48.088;11.642;2023-10-19T10:22:22;93651.97;;;16.14;84.77
26978;BME280;56314;48.088;11.642;2023-10-19T10:24:53;93659.28;;;16.12;84.57
26978;BME280;56314;48.088;11.642;2023-10-19T10:27:20;93664.00;;;16.16;85.21
26978;BME280;56314;48.088;11.642;2023-10-19T10:29:55;93661.81;;;16.27;83.89
26978;BME280;56314;48.088;11.642;2023-10-19T10:32:46;93657.97;;;16.36;82.96
26978;BME280;56314;48.088;11.642;2023-10-19T10:38:07;93651.72;;;16.51;82.21
26978;BME280;56314;48.088;11.642;2023-10-19T10:40:47;93648.88;;;16.45;81.68
26978;BME280;56314;48.088;11.642;2023-10-19T10:43:13;93643.91;;;16.36;81.99
26978;BME280;56314;48.088;11.642;2023-10-19T10:45:38;93646.16;;;16.32;82.70
26978;BME280;56314;48.088;11.642;2023-10-19T10:48:10;93642.06;;;16.36;83.79
26978;BME280;56314;48.088;11.642;2023-10-19T10:50:37;93639.88;;;16.40;83.48
26978;BME280;56314;48.088;11.642;2023-10-19T10:53:04;93626.22;;;16.43;82.93
26978;BME280;56314;48.088;11.642;2023-10-19T10:55:30;93624.44;;;16.57;81.79
26978;BME280;56314;48.088;11.642;2023-10-19T10:57:55;93621.66;;;16.78;81.79
26978;BME280;56314;48.088;11.642;2023-10-19T11:00:21;93619.69;;;17.61;80.05
26978;BME280;56314;48.088;11.642;2023-10-19T11:03:02;93603.13;;;18.58;74.72
26978;BME280;56314;48.088;11.642;2023-10-19T11:05:32;93606.81;;;18.96;73.25
26978;BME280;56314;48.088;11.642;2023-10-19T11:10:46;93609.81;;;18.68;71.48
26978;BME280;56314;48.088;11.642;2023-10-19T11:13:14;93605.78;;;18.58;70.95
26978;BME280;56314;48.088;11.642;2023-10-19T11:15:49;93602.91;;;18.53;69.99
26978;BME280;56314;48.088;11.642;2023-10-19T11:18:48;93615.19;;;18.54;69.95
26978;BME280;56314;48.088;11.642;2023-10-19T11:21:15;93610.69;;;18.55;69.58
26978;BME280;56314;48.088;11.642;2023-10-19T11:23:47;93609.72;;;18.42;69.38
26978;BME280;56314;48.088;11.642;2023-10-19T11:26:17;93608.53;;;18.31;69.49
26978;BME280;56314;48.088;11.642;2023-10-19T11:28:43;93599.97;;;18.23;69.76
26978;BME280;56314;48.088;11.642;2023-10-19T11:31:14;93602.25;;;18.19;69.55
26978;BME280;56314;48.088;11.642;2023-10-19T11:33:43;93607.19;;;18.09;68.69
26978;BME280;56314;48.088;11.642;2023-10-19T11:36:09;93589.63;;;18.01;68.48
26978;BME280;56314;48.088;11.642;2023-10-19T11:38:46;93570.22;;;17.94;70.30
26978;BME280;56314;48.088;11.642;2023-10-19T11:41:13;93574.16;;;17.84;71.64
26978;BME280;56314;48.088;11.642;2023-10-19T11:43:43;93548.19;;;17.87;69.86
26978;BME280;56314;48.088;11.642;2023-10-19T11:46:09;93539.81;;;17.83;70.05
26978;BME280;56314;48.088;11.642;2023-10-19T11:48:37;93555.34;;;17.86;70.48
26978;BME280;56314;48.088;11.642;2023-10-19T11:51:03;93549.66;;;17.76;71.36
26978;BME280;56314;48.088;11.642;2023-10-19T11:53:32;93535.34;;;17.77;72.58
26978;BME280;56314;48.088;11.642;2023-10-19T11:56:17;93535.75;;;17.74;70.78
26978;BME280;56314;48.088;11.642;2023-10-19T11:58:43;93541.47;;;17.70;74.02
26978;BME280;56314;48.088;11.642;2023-10-19T12:01:10;93534.16;;;17.66;75.92
26978;BME280;56314;48.088;11.642;2023-10-19T12:03:42;93528.66;;;17.61;77.56
26978;BME280;56314;48.088;11.642;2023-10-19T12:06:11;93511.94;;;17.47;76.82
26978;BME280;56314;48.088;11.642;2023-10-19T12:08:37;93521.75;;;17.46;73.69
26978;BME280;56314;48.088;11.642;2023-10-19T12:11:04;93509.66;;;17.57;73.29
26978;BME280;56314;48.088;11.642;2023-10-19T12:13:32;93516.19;;;17.68;72.79
26978;BME280;56314;48.088;11.642;2023-10-19T12:15:58;93517.94;;;17.88;72.64
26978;BME280;56314;48.088;11.642;2023-10-19T12:18:24;93513.53;;;18.27;69.17
26978;BME280;56314;48.088;11.642;2023-10-19T12:20:52;93517.91;;;18.46;68.98
26978;BME280;56314;48.088;11.642;2023-10-19T12:23:22;93517.50;;;18.50;69.16
26978;BME280;56314;48.088;11.642;2023-10-19T12:25:48;93505.41;;;18.54;69.57
26978;BME280;56314;48.088;11.642;2023-10-19T12:28:14;93509.75;;;18.48;68.62
26978;BME280;56314;48.088;11.642;2023-10-19T12:30:40;93508.75;;;18.42;69.08
26978;BME280;56314;48.088;11.642;2023-10-19T12:33:06;93504.84;;;18.45;69.34
26978;BME280;56314;48.088;11.642;2023-10-19T12:35:37;93500.75;;;18.49;67.93
26978;BME280;56314;48.088;11.642;2023-10-19T12:38:17;93487.41;;;18.56;68.28
26978;BME280;56314;48.088;11.642;2023-10-19T12:40:47;93473.31;;;19.13;65.95
26978;BME280;56314;48.088;11.642;2023-10-19T12:43:14;93457.97;;;20.08;62.82
26978;BME280;56314;48.088;11.642;2023-10-19T12:45:40;93462.69;;;20.67;58.57
26978;BME280;56314;48.088;11.642;2023-10-19T12:48:07;93468.09;;;20.48;58.78
26978;BME280;56314;48.088;11.642;2023-10-19T12:50:36;93470.75;;;20.18;58.06
26978;BME280;56314;48.088;11.642;2023-10-19T12:53:02;93475.38;;;19.92;58.53
26978;BME280;56314;48.088;11.642;2023-10-19T12:55:29;93470.34;;;20.02;58.37
26978;BME280;56314;48.088;11.642;2023-10-19T12:57:56;93457.22;;;20.61;57.57
26978;BME280;56314;48.088;11.642;2023-10-19T13:00:22;93456.41;;;21.15;56.73
26978;BME280;56314;48.088;11.642;2023-10-19T13:03:07;93447.22;;;20.99;54.54
26978;BME280;56314;48.088;11.642;2023-10-19T13:05:37;93450.94;;;20.86;55.19
26978;BME280;56314;48.088;11.642;2023-10-19T13:08:22;93452.00;;;20.67;54.44